createdAt,value
2019-02-15T00:00:33.819Z,7.7
2019-02-15T00:01:50.051Z,7.8
2019-02-15T00:02:51.594Z,7.8
2019-02-15T00:03:53.152Z,7.9
2019-02-15T00:04:54.687Z,7.9
2019-02-15T00:05:56.080Z,7.9
2019-02-15T00:06:57.615Z,7.9
2019-02-15T00:07:59.024Z,7.9
2019-02-15T00:09:00.416Z,7.9
2019-02-15T00:10:01.805Z,7.9
2019-02-15T00:11:03.345Z,7.9
2019-02-15T00:12:04.565Z,7.9
2019-02-15T00:13:15.147Z,7.9
2019-02-15T00:14:16.697Z,7.9
2019-02-15T00:15:18.227Z,7.9
2019-02-15T00:16:19.756Z,7.9
2019-02-15T00:17:21.134Z,7.9
2019-02-15T00:18:22.531Z,7.9
2019-02-15T00:19:23.747Z,7.8
2019-02-15T00:20:25.285Z,7.9
2019-02-15T00:21:26.667Z,7.9
2019-02-15T00:22:28.067Z,7.9
2019-02-15T00:23:29.294Z,7.9
2019-02-15T00:24:30.831Z,7.9
2019-02-15T00:25:32.118Z,7.9
2019-02-15T00:26:33.635Z,7.9
2019-02-15T00:27:35.083Z,7.8
2019-02-15T00:28:36.641Z,7.9
2019-02-15T00:29:38.164Z,7.8
2019-02-15T00:30:39.693Z,7.8
2019-02-15T00:31:41.077Z,7.8
2019-02-15T00:32:42.599Z,7.7
2019-02-15T00:33:44.345Z,7.8
2019-02-15T00:34:45.920Z,7.8
2019-02-15T00:35:47.322Z,7.8
2019-02-15T00:36:48.885Z,7.8
2019-02-15T00:37:50.407Z,7.9
2019-02-15T00:38:51.937Z,7.9
2019-02-15T00:39:53.465Z,7.9
2019-02-15T00:40:54.984Z,7.9
2019-02-15T00:41:56.522Z,7.8
2019-02-15T00:42:58.050Z,7.8
2019-02-15T00:43:59.625Z,7.8
2019-02-15T00:45:01.105Z,7.9
2019-02-15T00:46:02.662Z,7.9
2019-02-15T00:47:04.212Z,7.9
2019-02-15T00:48:05.745Z,7.9
2019-02-15T00:49:07.275Z,7.9
2019-02-15T00:50:08.825Z,7.9
2019-02-15T00:51:10.235Z,7.9
2019-02-15T00:52:11.815Z,7.9
2019-02-15T00:53:13.045Z,7.9
2019-02-15T00:54:14.423Z,7.9
2019-02-15T00:55:15.779Z,7.9
2019-02-15T00:56:17.322Z,7.9
2019-02-15T00:57:18.851Z,7.9
2019-02-15T00:58:20.391Z,7.9
2019-02-15T00:59:21.791Z,7.9
2019-02-15T01:00:22.880Z,7.9
2019-02-15T01:01:24.426Z,7.9
2019-02-15T01:02:26.546Z,7.9
2019-02-15T01:03:27.923Z,7.8
2019-02-15T01:04:29.458Z,7.8
2019-02-15T01:05:30.834Z,7.8
2019-02-15T01:06:32.378Z,7.8
2019-02-15T01:07:33.808Z,7.8
2019-02-15T01:08:35.340Z,7.9
2019-02-15T01:09:36.863Z,7.9
2019-02-15T01:10:38.083Z,7.9
2019-02-15T01:11:39.451Z,7.9
2019-02-15T01:12:40.995Z,7.9
2019-02-15T01:13:42.373Z,7.9
2019-02-15T01:14:43.743Z,7.9
2019-02-15T01:15:45.273Z,7.9
2019-02-15T01:16:46.653Z,7.8
2019-02-15T01:17:48.184Z,7.9
2019-02-15T01:18:49.723Z,7.8
2019-02-15T01:19:51.265Z,7.9
2019-02-15T01:20:52.663Z,7.9
2019-02-15T01:21:54.199Z,7.9
2019-02-15T01:22:55.592Z,7.9
2019-02-15T01:23:56.805Z,7.8
2019-02-15T01:24:58.344Z,7.8
2019-02-15T01:25:59.552Z,7.8
2019-02-15T01:27:01.108Z,7.8
2019-02-15T01:28:02.641Z,7.8
2019-02-15T01:29:04.166Z,7.8
2019-02-15T01:30:05.536Z,7.8
2019-02-15T01:31:06.745Z,7.8
2019-02-15T01:32:08.278Z,7.8
2019-02-15T01:33:09.812Z,7.8
2019-02-15T01:34:11.184Z,7.9
2019-02-15T01:35:12.711Z,7.9
2019-02-15T01:36:14.083Z,7.8
2019-02-15T01:37:15.620Z,7.2
2019-02-15T01:38:17.008Z,7.2
2019-02-15T01:39:18.544Z,7.2
2019-02-15T01:40:20.074Z,7.3
2019-02-15T01:41:21.455Z,7.3
2019-02-15T01:42:22.820Z,7.4
2019-02-15T01:43:24.203Z,7.4
2019-02-15T01:44:25.746Z,7.4
2019-02-15T01:45:27.151Z,7.5
2019-02-15T01:46:28.515Z,7.5
2019-02-15T01:47:30.064Z,7.5
2019-02-15T01:48:31.616Z,7.5
2019-02-15T01:49:33.143Z,7.5
2019-02-15T01:50:34.573Z,7.6
2019-02-15T01:51:35.964Z,7.6
2019-02-15T01:52:37.438Z,7.6
2019-02-15T01:53:38.994Z,7.6
2019-02-15T01:54:40.216Z,7.7
2019-02-15T01:55:41.461Z,7.7
2019-02-15T01:56:43.033Z,7.7
2019-02-15T01:57:44.559Z,7.8
2019-02-15T01:58:46.160Z,7.8
2019-02-15T01:59:47.730Z,7.8
2019-02-15T02:00:49.115Z,7.8
2019-02-15T02:01:50.507Z,7.8
2019-02-15T02:02:51.732Z,7.8
2019-02-15T02:03:53.103Z,7.8
2019-02-15T02:04:54.630Z,7.8
2019-02-15T02:05:55.862Z,7.7
2019-02-15T02:06:57.245Z,7.7
2019-02-15T02:07:58.803Z,7.7
2019-02-15T02:09:00.223Z,7.5
2019-02-15T02:10:01.704Z,7.5
2019-02-15T02:11:03.233Z,7.3
2019-02-15T02:12:04.622Z,7.2
2019-02-15T02:13:06.166Z,7.1
2019-02-15T02:14:07.736Z,7.1
2019-02-15T02:15:09.319Z,7.1
2019-02-15T02:16:10.872Z,7.1
2019-02-15T02:17:12.416Z,7.1
2019-02-15T02:18:13.628Z,7.1
2019-02-15T02:19:15.168Z,7.1
2019-02-15T02:20:16.703Z,7.1
2019-02-15T02:21:18.079Z,7.1
2019-02-15T02:22:19.603Z,7.1
2019-02-15T02:23:20.825Z,7.1
2019-02-15T02:24:22.378Z,7.1
2019-02-15T02:25:23.594Z,7.1
2019-02-15T02:26:25.140Z,7.1
2019-02-15T02:27:26.549Z,7.1
2019-02-15T02:28:28.081Z,7.1
2019-02-15T02:29:29.605Z,7.1
2019-02-15T02:30:31.084Z,7.1
2019-02-15T02:31:32.446Z,7.1
2019-02-15T02:32:33.982Z,7.1
2019-02-15T02:33:35.543Z,7.1
2019-02-15T02:34:37.095Z,7.1
2019-02-15T02:35:38.640Z,7.1
2019-02-15T02:36:40.046Z,7.1
2019-02-15T02:37:41.611Z,7.1
2019-02-15T02:38:42.995Z,7.1
2019-02-15T02:39:44.548Z,7.1
2019-02-15T02:40:46.126Z,7.1
2019-02-15T02:41:47.703Z,7.1
2019-02-15T02:42:49.063Z,7.1
2019-02-15T02:44:01.373Z,7.1
2019-02-15T02:45:02.780Z,7.1
2019-02-15T02:46:04.315Z,7.2
2019-02-15T02:47:05.713Z,7.1
2019-02-15T02:48:07.255Z,7.2
2019-02-15T02:49:08.815Z,7.2
2019-02-15T02:50:10.050Z,7.2
2019-02-15T02:51:11.595Z,7.2
2019-02-15T02:52:13.180Z,7.2
2019-02-15T02:53:14.749Z,7.2
2019-02-15T02:54:16.294Z,7.2
2019-02-15T02:55:17.825Z,7.2
2019-02-15T02:56:19.381Z,7.2
2019-02-15T02:57:20.914Z,7.2
2019-02-15T02:58:22.446Z,7.2
2019-02-15T02:59:23.669Z,7.2
2019-02-15T03:00:35.223Z,7.2
2019-02-15T03:01:36.854Z,7.2
2019-02-15T03:02:38.407Z,7.2
2019-02-15T03:03:39.792Z,7.2
2019-02-15T03:04:41.464Z,7.2
2019-02-15T03:05:42.683Z,7.2
2019-02-15T03:06:44.231Z,7.2
2019-02-15T03:07:45.599Z,7.2
2019-02-15T03:08:46.685Z,7.3
2019-02-15T03:09:48.234Z,7.3
2019-02-15T03:10:49.770Z,7.4
2019-02-15T03:11:50.985Z,7.4
2019-02-15T03:12:52.397Z,7.5
2019-02-15T03:13:53.945Z,7.5
2019-02-15T03:14:55.344Z,7.5
2019-02-15T03:15:56.872Z,7.5
2019-02-15T03:16:58.308Z,7.6
2019-02-15T03:17:59.678Z,7.6
2019-02-15T03:19:01.784Z,7.6
2019-02-15T03:20:03.319Z,7.6
2019-02-15T03:21:04.565Z,7.6
2019-02-15T03:22:06.152Z,7.7
2019-02-15T03:23:07.539Z,7.7
2019-02-15T03:24:09.180Z,7.8
2019-02-15T03:25:10.604Z,7.9
2019-02-15T03:26:12.165Z,7.9
2019-02-15T03:27:13.556Z,7.9
2019-02-15T03:28:15.086Z,7.9
2019-02-15T03:29:16.625Z,7.9
2019-02-15T03:30:18.207Z,7.9
2019-02-15T03:31:19.780Z,7.9
2019-02-15T03:32:21.389Z,7.8
2019-02-15T03:33:23.170Z,7.8
2019-02-15T03:34:24.736Z,7.8
2019-02-15T03:35:26.131Z,7.8
2019-02-15T03:36:27.672Z,7.8
2019-02-15T03:37:29.308Z,7.8
2019-02-15T03:38:30.854Z,7.8
2019-02-15T03:39:32.429Z,7.8
2019-02-15T03:40:33.974Z,7.8
2019-02-15T03:41:35.544Z,7.8
2019-02-15T03:42:36.775Z,7.9
2019-02-15T03:43:38.173Z,7.8
2019-02-15T03:44:39.725Z,7.8
2019-02-15T03:45:41.266Z,7.8
2019-02-15T03:46:42.830Z,7.8
2019-02-15T03:47:44.370Z,7.8
2019-02-15T03:48:45.887Z,7.8
2019-02-15T03:49:47.432Z,7.8
2019-02-15T03:50:48.866Z,7.8
2019-02-15T03:51:50.454Z,7.8
2019-02-15T03:52:51.975Z,7.8
2019-02-15T03:53:53.376Z,7.8
2019-02-15T03:54:54.761Z,7.8
2019-02-15T03:55:56.328Z,7.8
2019-02-15T03:56:57.803Z,7.8
2019-02-15T03:57:59.360Z,7.8
2019-02-15T03:59:00.952Z,7.8
2019-02-15T04:00:02.686Z,7.8
2019-02-15T04:01:04.312Z,7.8
2019-02-15T04:02:05.828Z,7.8
2019-02-15T04:03:07.144Z,7.8
2019-02-15T04:04:08.526Z,7.9
2019-02-15T04:05:10.066Z,7.9
2019-02-15T04:06:11.603Z,7.6
2019-02-15T04:07:13.212Z,7.7
2019-02-15T04:08:14.755Z,7.8
2019-02-15T04:09:16.157Z,7.8
2019-02-15T04:10:17.540Z,7.8
2019-02-15T04:11:18.797Z,7.8
2019-02-15T04:12:20.169Z,7.8
2019-02-15T04:13:21.580Z,7.7
2019-02-15T04:14:34.806Z,7.6
2019-02-15T04:15:36.351Z,7.5
2019-02-15T04:16:37.914Z,7.4
2019-02-15T04:17:39.471Z,7.4
2019-02-15T04:18:40.849Z,7.2
2019-02-15T04:19:42.248Z,7.2
2019-02-15T04:20:43.795Z,7.1
2019-02-15T04:21:45.357Z,7.2
2019-02-15T04:22:46.977Z,7.1
2019-02-15T04:23:48.518Z,7.1
2019-02-15T04:24:49.935Z,7.2
2019-02-15T04:25:51.312Z,7.2
2019-02-15T04:26:52.742Z,7.2
2019-02-15T04:27:54.277Z,7.2
2019-02-15T04:28:56.017Z,7.2
2019-02-15T04:29:57.466Z,7.2
2019-02-15T04:30:59.218Z,7.2
2019-02-15T04:32:00.630Z,7.2
2019-02-15T04:33:02.186Z,7.3
2019-02-15T04:34:03.616Z,7.3
2019-02-15T04:35:05.158Z,7.4
2019-02-15T04:36:06.697Z,7.4
2019-02-15T04:37:08.087Z,7.5
2019-02-15T04:38:10.232Z,7.6
2019-02-15T04:39:11.763Z,7.6
2019-02-15T04:40:12.990Z,7.6
2019-02-15T04:41:14.547Z,7.7
2019-02-15T04:42:16.104Z,7.7
2019-02-15T04:43:17.506Z,7.8
2019-02-15T04:44:18.596Z,7.8
2019-02-15T04:45:20.042Z,7.8
2019-02-15T04:46:21.446Z,7.8
2019-02-15T04:47:22.855Z,7.8
2019-02-15T04:48:24.098Z,7.8
2019-02-15T04:49:25.845Z,7.8
2019-02-15T04:50:27.239Z,7.8
2019-02-15T04:51:28.650Z,7.8
2019-02-15T04:52:30.191Z,7.8
2019-02-15T04:53:31.568Z,7.8
2019-02-15T04:54:32.972Z,7.8
2019-02-15T04:55:34.518Z,7.7
2019-02-15T04:56:35.912Z,7.7
2019-02-15T04:57:37.360Z,7.7
2019-02-15T04:58:38.902Z,7.7
2019-02-15T04:59:40.274Z,7.7
2019-02-15T05:00:41.829Z,7.7
2019-02-15T05:01:43.286Z,7.7
2019-02-15T05:02:45.055Z,7.7
2019-02-15T05:03:46.463Z,7.6
2019-02-15T05:04:47.985Z,7.7
2019-02-15T05:05:49.553Z,7.6
2019-02-15T05:06:50.948Z,7.6
2019-02-15T05:07:52.486Z,7.6
2019-02-15T05:08:54.027Z,7.6
2019-02-15T05:09:55.566Z,7.6
2019-02-15T05:10:57.106Z,7.6
2019-02-15T05:11:58.654Z,7.6
2019-02-15T05:13:00.257Z,7.6
2019-02-15T05:14:01.485Z,7.6
2019-02-15T05:15:02.998Z,7.6
2019-02-15T05:16:04.580Z,7.6
2019-02-15T05:17:05.852Z,7.6
2019-02-15T05:18:07.239Z,7.5
2019-02-15T05:19:08.766Z,7.5
2019-02-15T05:20:10.300Z,7.5
2019-02-15T05:21:13.900Z,7.4
2019-02-15T05:22:15.510Z,7.4
2019-02-15T05:23:16.922Z,7.3
2019-02-15T05:24:18.303Z,7.3
2019-02-15T05:25:19.698Z,7.2
2019-02-15T05:26:21.246Z,7.2
2019-02-15T05:27:22.806Z,7.2
2019-02-15T05:28:24.194Z,7.2
2019-02-15T05:29:25.834Z,7.2
2019-02-15T05:30:27.506Z,7.2
2019-02-15T05:31:29.045Z,7.2
2019-02-15T05:32:30.605Z,7.2
2019-02-15T05:33:32.178Z,7.2
2019-02-15T05:34:33.812Z,7.2
2019-02-15T05:35:35.060Z,7.2
2019-02-15T05:36:36.417Z,7.2
2019-02-15T05:37:37.947Z,7.2
2019-02-15T05:38:42.083Z,7.2
2019-02-15T05:39:43.464Z,7.2
2019-02-15T05:40:44.666Z,7.2
2019-02-15T05:41:46.212Z,7.2
2019-02-15T05:42:47.584Z,7.2
2019-02-15T05:43:49.017Z,7.2
2019-02-15T05:44:50.556Z,7.2
2019-02-15T05:45:51.972Z,7.2
2019-02-15T05:46:53.558Z,7.2
2019-02-15T05:47:55.132Z,7.2
2019-02-15T05:48:56.648Z,7.2
2019-02-15T05:49:58.815Z,7.3
2019-02-15T05:51:00.342Z,7.3
2019-02-15T05:52:01.742Z,7.4
2019-02-15T05:53:03.321Z,7.4
2019-02-15T05:54:04.730Z,7.5
2019-02-15T05:55:06.313Z,7.5
2019-02-15T05:56:07.855Z,7.5
2019-02-15T05:57:11.161Z,7.4
2019-02-15T05:58:12.720Z,7.4
2019-02-15T05:59:14.253Z,7.4
2019-02-15T06:00:15.820Z,7.3
2019-02-15T06:01:17.375Z,7.2
2019-02-15T06:02:18.754Z,7.2
2019-02-15T06:03:20.156Z,7.2
2019-02-15T06:04:21.749Z,7.2
2019-02-15T06:05:23.142Z,7.2
2019-02-15T06:06:24.571Z,7.2
2019-02-15T06:07:25.952Z,7.2
2019-02-15T06:08:27.355Z,7.2
2019-02-15T06:09:28.735Z,7.2
2019-02-15T06:10:30.106Z,7.2
2019-02-15T06:11:31.675Z,7.2
2019-02-15T06:12:33.235Z,7.2
2019-02-15T06:13:34.750Z,7.2
2019-02-15T06:14:36.135Z,7.2
2019-02-15T06:15:37.805Z,7.2
2019-02-15T06:16:39.354Z,7.2
2019-02-15T06:17:40.943Z,7.3
2019-02-15T06:18:42.409Z,7.3
2019-02-15T06:19:43.843Z,7.4
2019-02-15T06:20:45.313Z,7.5
2019-02-15T06:21:46.864Z,7.6
2019-02-15T06:22:48.651Z,7.7
2019-02-15T06:23:50.072Z,7.7
2019-02-15T06:24:51.470Z,7.8
2019-02-15T06:25:52.926Z,7.8
2019-02-15T06:26:54.417Z,7.9
2019-02-15T06:27:55.836Z,7.9
2019-02-15T06:28:57.225Z,7.8
2019-02-15T06:29:58.807Z,7.8
2019-02-15T06:31:00.347Z,7.8
2019-02-15T06:32:01.741Z,7.8
2019-02-15T06:33:02.996Z,7.8
2019-02-15T06:34:04.587Z,7.8
2019-02-15T06:35:05.839Z,7.8
2019-02-15T06:36:07.393Z,7.8
2019-02-15T06:37:08.953Z,7.8
2019-02-15T06:38:10.355Z,7.8
2019-02-15T06:39:11.905Z,7.8
2019-02-15T06:40:13.472Z,7.7
2019-02-15T06:41:14.897Z,7.7
2019-02-15T06:42:16.315Z,7.7
2019-02-15T06:43:17.551Z,7.7
2019-02-15T06:44:19.112Z,7.7
2019-02-15T06:45:26.761Z,7.7
2019-02-15T06:46:27.978Z,7.7
2019-02-15T06:47:29.375Z,7.6
2019-02-15T06:48:30.946Z,7.6
2019-02-15T06:49:32.345Z,7.6
2019-02-15T06:50:33.901Z,7.6
2019-02-15T06:51:35.135Z,7.6
2019-02-15T06:52:36.371Z,7.6
2019-02-15T06:53:38.010Z,7.6
2019-02-15T06:54:39.552Z,7.6
2019-02-15T06:55:41.097Z,7.6
2019-02-15T06:56:42.175Z,7.6
2019-02-15T06:57:43.725Z,7.7
2019-02-15T06:58:47.304Z,7.7
2019-02-15T06:59:48.557Z,7.7
2019-02-15T07:00:49.975Z,7.8
2019-02-15T07:01:51.053Z,7.8
2019-02-15T07:02:52.686Z,7.8
2019-02-15T07:03:54.255Z,7.9
2019-02-15T07:04:56.076Z,7.9
2019-02-15T07:05:57.346Z,7.9
2019-02-15T07:06:58.975Z,7.9
2019-02-15T07:08:00.522Z,7.9
2019-02-15T07:09:02.062Z,7.9
2019-02-15T07:10:03.641Z,7.9
2019-02-15T07:11:05.196Z,7.8
2019-02-15T07:12:06.586Z,7.2
2019-02-15T07:13:07.985Z,7.2
2019-02-15T07:14:09.543Z,7.2
2019-02-15T07:15:10.933Z,7.2
2019-02-15T07:16:12.500Z,7.2
2019-02-15T07:17:13.918Z,7.3
2019-02-15T07:18:15.334Z,7.3
2019-02-15T07:19:16.562Z,7.3
2019-02-15T07:20:17.967Z,7.4
2019-02-15T07:21:19.740Z,7.5
2019-02-15T07:22:20.959Z,7.6
2019-02-15T07:23:22.588Z,7.7
2019-02-15T07:24:24.145Z,7.8
2019-02-15T07:25:25.397Z,7.9
2019-02-15T07:26:26.803Z,7.9
2019-02-15T07:27:28.403Z,7.6
2019-02-15T07:28:29.968Z,7.7
2019-02-15T07:29:31.549Z,7.8
2019-02-15T07:30:33.112Z,7.8
2019-02-15T07:31:34.505Z,7.9
2019-02-15T07:32:36.071Z,7.9
2019-02-15T07:33:37.635Z,7.9
2019-02-15T07:34:39.233Z,7.9
2019-02-15T07:35:40.809Z,7.9
2019-02-15T07:36:42.235Z,7.9
2019-02-15T07:37:43.841Z,7.9
2019-02-15T07:38:45.217Z,7.2
2019-02-15T07:39:46.611Z,7.2
2019-02-15T07:40:48.361Z,7.3
2019-02-15T07:41:49.596Z,7.3
2019-02-15T07:42:51.213Z,7.2
2019-02-15T07:43:52.805Z,7.2
2019-02-15T07:44:54.222Z,7.2
2019-02-15T07:45:55.788Z,7.2
2019-02-15T07:46:57.184Z,7.2
2019-02-15T07:48:00.038Z,7.2
2019-02-15T07:49:01.613Z,7.2
2019-02-15T07:50:03.157Z,7.2
2019-02-15T07:51:11.330Z,7.2
2019-02-15T07:52:12.870Z,7.2
2019-02-15T07:53:14.173Z,7.2
2019-02-15T07:54:15.774Z,7.2
2019-02-15T07:55:17.365Z,7.2
2019-02-15T07:56:18.770Z,7.2
2019-02-15T07:57:20.324Z,7.2
2019-02-15T07:58:21.891Z,7.2
2019-02-15T07:59:23.467Z,7.2
2019-02-15T08:00:25.063Z,7.2
2019-02-15T08:01:26.465Z,7.2
2019-02-15T08:02:27.874Z,7.2
2019-02-15T08:03:29.397Z,7.2
2019-02-15T08:04:30.962Z,7.2
2019-02-15T08:05:32.542Z,7.2
2019-02-15T08:06:34.150Z,7.2
2019-02-15T08:07:35.705Z,7.2
2019-02-15T08:08:37.261Z,7.2
2019-02-15T08:09:38.668Z,7.2
2019-02-15T08:10:41.129Z,7.2
2019-02-15T08:11:42.368Z,7.2
2019-02-15T08:12:43.606Z,7.2
2019-02-15T08:13:45.176Z,7.3
2019-02-15T08:14:46.423Z,7.3
2019-02-15T08:15:53.413Z,7.4
2019-02-15T08:16:55.179Z,7.5
2019-02-15T08:17:56.744Z,7.6
2019-02-15T08:18:58.137Z,7.7
2019-02-15T08:19:59.670Z,7.8
2019-02-15T08:21:01.082Z,7.8
2019-02-15T08:22:02.478Z,7.9
2019-02-15T08:23:03.866Z,7.9
2019-02-15T08:24:05.306Z,7.9
2019-02-15T08:25:06.880Z,7.9
2019-02-15T08:26:08.450Z,7.9
2019-02-15T08:27:09.866Z,7.9
2019-02-15T08:28:11.104Z,7.9
2019-02-15T08:29:12.485Z,7.8
2019-02-15T08:30:14.018Z,7.8
2019-02-15T08:31:15.433Z,7.8
2019-02-15T08:32:16.982Z,7.8
2019-02-15T08:33:18.560Z,7.8
2019-02-15T08:34:20.095Z,7.8
2019-02-15T08:35:21.636Z,7.7
2019-02-15T08:36:23.167Z,7.7
2019-02-15T08:37:24.742Z,7.7
2019-02-15T08:38:28.143Z,7.6
2019-02-15T08:39:29.534Z,7.6
2019-02-15T08:40:30.926Z,7.5
2019-02-15T08:41:32.475Z,7.5
2019-02-15T08:42:34.017Z,7.5
2019-02-15T08:43:36.214Z,7.4
2019-02-15T08:44:37.973Z,7.4
2019-02-15T08:45:39.506Z,7.4
2019-02-15T08:46:41.027Z,7.3
2019-02-15T08:47:42.457Z,7.3
2019-02-15T08:48:48.041Z,7.3
2019-02-15T08:49:49.585Z,7.3
2019-02-15T08:50:50.988Z,7.2
2019-02-15T08:51:52.379Z,7.3
2019-02-15T08:52:56.034Z,7.3
2019-02-15T08:53:57.652Z,7.3
2019-02-15T08:54:59.078Z,7.4
2019-02-15T08:56:00.521Z,7.4
2019-02-15T08:57:02.127Z,7.5
2019-02-15T08:58:03.739Z,7.5
2019-02-15T08:59:04.979Z,7.5
2019-02-15T09:00:06.514Z,7.6
2019-02-15T09:01:08.041Z,7.6
2019-02-15T09:02:09.425Z,7.7
2019-02-15T09:03:10.982Z,7.7
2019-02-15T09:04:12.538Z,7.7
2019-02-15T09:05:14.067Z,7.7
2019-02-15T09:06:15.447Z,7.7
2019-02-15T09:07:17.006Z,7.7
2019-02-15T09:08:18.265Z,7.7
2019-02-15T09:09:19.677Z,7.8
2019-02-15T09:10:20.783Z,7.8
2019-02-15T09:11:22.095Z,7.8
2019-02-15T09:12:23.677Z,7.8
2019-02-15T09:13:25.217Z,7.8
2019-02-15T09:14:26.775Z,7.9
2019-02-15T09:15:28.346Z,7.9
2019-02-15T09:16:29.744Z,7.9
2019-02-15T09:17:31.322Z,7.9
2019-02-15T09:18:32.735Z,7.9
2019-02-15T09:19:34.283Z,7.9
2019-02-15T09:20:35.845Z,7.9
2019-02-15T09:21:37.387Z,7.1
2019-02-15T09:22:38.933Z,7.3
2019-02-15T09:23:40.374Z,7.3
2019-02-15T09:24:41.949Z,7.3
2019-02-15T09:25:43.378Z,7.3
2019-02-15T09:26:44.622Z,7.3
2019-02-15T09:27:46.196Z,7.2
2019-02-15T09:28:47.666Z,7.2
2019-02-15T09:29:49.335Z,7.2
2019-02-15T09:30:50.888Z,7.2
2019-02-15T09:31:52.515Z,7.1
2019-02-15T09:32:54.071Z,7.1
2019-02-15T09:33:55.626Z,7.1
2019-02-15T09:34:57.018Z,7.1
2019-02-15T09:35:58.407Z,7.1
2019-02-15T09:36:59.967Z,7.1
2019-02-15T09:38:01.358Z,7.1
2019-02-15T09:39:02.909Z,7.1
2019-02-15T09:40:04.166Z,7.1
2019-02-15T09:41:05.569Z,7.2
2019-02-15T09:42:07.129Z,7.1
2019-02-15T09:43:08.704Z,7.2
2019-02-15T09:44:10.263Z,7.2
2019-02-15T09:45:11.652Z,7.2
2019-02-15T09:46:21.668Z,7.2
2019-02-15T09:47:23.220Z,7.2
2019-02-15T09:48:24.781Z,7.2
2019-02-15T09:49:26.206Z,7.2
2019-02-15T09:50:27.756Z,7.2
2019-02-15T09:51:29.325Z,7.2
2019-02-15T09:52:30.878Z,7.3
2019-02-15T09:53:32.470Z,7.3
2019-02-15T09:54:33.894Z,7.4
2019-02-15T09:55:35.525Z,7.6
2019-02-15T09:56:36.953Z,7.7
2019-02-15T09:57:38.353Z,7.8
2019-02-15T09:58:39.928Z,7.9
2019-02-15T09:59:41.304Z,7.9
2019-02-15T10:00:42.682Z,7.9
2019-02-15T10:01:44.266Z,7.9
2019-02-15T10:02:45.832Z,7.5
2019-02-15T10:03:47.232Z,7.6
2019-02-15T10:04:48.985Z,7.7
2019-02-15T10:05:50.554Z,7.8
2019-02-15T10:06:52.096Z,7.8
2019-02-15T10:07:53.609Z,7.8
2019-02-15T10:08:55.185Z,7.8
2019-02-15T10:09:56.612Z,7.9
2019-02-15T10:10:58.155Z,7.8
2019-02-15T10:11:59.416Z,7.8
2019-02-15T10:13:00.985Z,7.8
2019-02-15T10:14:02.529Z,7.7
2019-02-15T10:15:03.927Z,7.7
2019-02-15T10:16:05.497Z,7.6
2019-02-15T10:17:06.733Z,7.5
2019-02-15T10:18:08.277Z,7.5
2019-02-15T10:19:09.514Z,7.4
2019-02-15T10:20:11.065Z,7.4
2019-02-15T10:21:12.608Z,7.4
2019-02-15T10:22:14.224Z,7.4
2019-02-15T10:23:15.793Z,7.4
2019-02-15T10:24:17.250Z,7.4
2019-02-15T10:25:18.714Z,7.4
2019-02-15T10:26:20.283Z,7.4
2019-02-15T10:27:21.694Z,7.5
2019-02-15T10:28:23.266Z,7.6
2019-02-15T10:29:24.644Z,7.6
2019-02-15T10:30:26.238Z,7.7
2019-02-15T10:31:27.792Z,7.7
2019-02-15T10:32:29.194Z,7.8
2019-02-15T10:33:30.595Z,7.8
2019-02-15T10:34:32.144Z,7.8
2019-02-15T10:35:33.372Z,7.9
2019-02-15T10:36:34.943Z,7.9
2019-02-15T10:37:36.326Z,7.9
2019-02-15T10:38:37.886Z,7.9
2019-02-15T10:39:39.323Z,7.9
2019-02-15T10:40:40.750Z,7.9
2019-02-15T10:41:42.199Z,7.8
2019-02-15T10:42:43.753Z,7.9
2019-02-15T10:43:45.146Z,7.9
2019-02-15T10:44:46.591Z,7.9
2019-02-15T10:45:48.057Z,7.9
2019-02-15T10:46:49.636Z,7.9
2019-02-15T10:47:51.178Z,7.9
2019-02-15T10:48:52.568Z,7.8
2019-02-15T10:49:54.118Z,7.9
2019-02-15T10:50:55.687Z,7.9
2019-02-15T10:51:57.256Z,7.9
2019-02-15T10:52:58.525Z,7.2
2019-02-15T10:54:01.485Z,7.3
2019-02-15T10:55:02.966Z,7.4
2019-02-15T10:56:04.567Z,7.5
2019-02-15T10:57:05.822Z,7.5
2019-02-15T10:58:07.202Z,7.5
2019-02-15T10:59:09.016Z,7.5
2019-02-15T11:00:10.458Z,7.5
2019-02-15T11:01:12.042Z,7.5
2019-02-15T11:02:13.453Z,7.5
2019-02-15T11:03:14.868Z,7.4
2019-02-15T11:04:16.449Z,7.4
2019-02-15T11:05:17.815Z,7.3
2019-02-15T11:06:19.381Z,7.2
2019-02-15T11:07:20.619Z,7.2
2019-02-15T11:08:22.022Z,7.2
2019-02-15T11:09:23.253Z,7.2
2019-02-15T11:10:24.829Z,7.2
2019-02-15T11:11:26.256Z,7.2
2019-02-15T11:12:27.657Z,7.2
2019-02-15T11:13:29.060Z,7.2
2019-02-15T11:14:30.630Z,7.2
2019-02-15T11:15:31.875Z,7.1
2019-02-15T11:16:33.426Z,7.2
2019-02-15T11:17:34.832Z,7.1
2019-02-15T11:18:36.392Z,7.2
2019-02-15T11:19:37.793Z,7.2
2019-02-15T11:20:39.360Z,7.2
2019-02-15T11:21:40.597Z,7.2
2019-02-15T11:22:42.067Z,7.2
2019-02-15T11:23:43.636Z,7.2
2019-02-15T11:24:45.138Z,7.2
2019-02-15T11:25:46.253Z,7.2
2019-02-15T11:26:48.040Z,7.2
2019-02-15T11:27:49.459Z,7.2
2019-02-15T11:28:51.018Z,7.2
2019-02-15T11:29:52.587Z,7.3
2019-02-15T11:30:53.995Z,7.3
2019-02-15T11:31:55.464Z,7.4
2019-02-15T11:32:56.746Z,7.4
2019-02-15T11:33:58.143Z,7.5
2019-02-15T11:34:59.425Z,7.5
2019-02-15T11:36:00.990Z,7.6
2019-02-15T11:37:02.282Z,7.7
2019-02-15T11:38:03.672Z,7.7
2019-02-15T11:39:05.250Z,7.8
2019-02-15T11:40:06.835Z,7.8
2019-02-15T11:41:12.882Z,7.8
2019-02-15T11:42:14.285Z,7.9
2019-02-15T11:43:16.735Z,7.9
2019-02-15T11:44:18.317Z,7.9
2019-02-15T11:45:19.868Z,7.9
2019-02-15T11:46:21.307Z,7.9
2019-02-15T11:47:22.853Z,7.9
2019-02-15T11:48:24.239Z,7.9
2019-02-15T11:49:25.807Z,7.9
2019-02-15T11:50:27.386Z,7.9
2019-02-15T11:51:28.606Z,7.8
2019-02-15T11:52:30.161Z,7.8
2019-02-15T11:53:31.730Z,7.8
2019-02-15T11:54:33.355Z,7.8
2019-02-15T11:55:34.597Z,7.8
2019-02-15T11:56:35.974Z,7.8
2019-02-15T11:57:37.401Z,7.9
2019-02-15T11:58:38.789Z,7.9
2019-02-15T11:59:40.325Z,7.9
2019-02-15T12:00:41.879Z,7.9
2019-02-15T12:01:43.418Z,7.9
2019-02-15T12:02:44.817Z,7.8
2019-02-15T12:03:46.394Z,7.9
2019-02-15T12:04:47.642Z,7.8
2019-02-15T12:05:49.249Z,7.8
2019-02-15T12:06:50.821Z,7.8
2019-02-15T12:07:52.353Z,7.8
2019-02-15T12:08:53.914Z,7.8
2019-02-15T12:09:55.331Z,7.8
2019-02-15T12:10:56.863Z,7.8
2019-02-15T12:11:58.090Z,7.2
2019-02-15T12:12:59.673Z,7.3
2019-02-15T12:14:01.209Z,7.3
2019-02-15T12:15:02.810Z,7.4
2019-02-15T12:16:04.222Z,7.4
2019-02-15T12:17:07.435Z,7.4
2019-02-15T12:18:08.837Z,7.4
2019-02-15T12:19:10.375Z,7.4
2019-02-15T12:20:12.169Z,7.5
2019-02-15T12:21:13.705Z,7.5
2019-02-15T12:22:14.982Z,7.5
2019-02-15T12:23:16.534Z,7.6
2019-02-15T12:24:17.908Z,7.6
2019-02-15T12:25:19.310Z,7.6
2019-02-15T12:26:20.913Z,7.6
2019-02-15T12:27:22.479Z,7.7
2019-02-15T12:28:23.879Z,7.7
2019-02-15T12:29:25.410Z,7.8
2019-02-15T12:30:26.982Z,7.3
2019-02-15T12:31:28.560Z,7.4
2019-02-15T12:32:30.132Z,7.4
2019-02-15T12:33:31.722Z,7.4
2019-02-15T12:34:33.302Z,7.4
2019-02-15T12:35:34.852Z,7.4
2019-02-15T12:36:36.429Z,7.3
2019-02-15T12:37:38.239Z,7.2
2019-02-15T12:38:39.477Z,7.2
2019-02-15T12:39:40.946Z,7.2
2019-02-15T12:40:42.186Z,7.1
2019-02-15T12:41:43.565Z,7.2
2019-02-15T12:42:45.134Z,7.1
2019-02-15T12:43:46.668Z,7.1
2019-02-15T12:44:48.096Z,7.1
2019-02-15T12:45:49.666Z,7.1
2019-02-15T12:46:51.266Z,7.1
2019-02-15T12:47:52.670Z,7.1
2019-02-15T12:48:54.237Z,7.1
2019-02-15T12:49:57.205Z,7.1
2019-02-15T12:50:58.610Z,7.1
2019-02-15T12:51:59.837Z,7.1
2019-02-15T12:53:00.958Z,7.2
2019-02-15T12:54:02.508Z,7.1
2019-02-15T12:55:05.435Z,7.2
2019-02-15T12:56:06.716Z,7.2
2019-02-15T12:57:08.268Z,7.2
2019-02-15T12:58:09.828Z,7.2
2019-02-15T12:59:11.411Z,7.2
2019-02-15T13:00:12.971Z,7.2
2019-02-15T13:01:14.394Z,7.2
2019-02-15T13:02:15.669Z,7.2
2019-02-15T13:03:17.073Z,7.2
2019-02-15T13:04:18.652Z,7.3
2019-02-15T13:05:20.258Z,7.4
2019-02-15T13:06:30.342Z,7.5
2019-02-15T13:07:33.197Z,7.5
2019-02-15T13:08:34.738Z,7.6
2019-02-15T13:09:36.151Z,7.6
2019-02-15T13:10:37.735Z,7.7
2019-02-15T13:11:39.145Z,7.8
2019-02-15T13:12:40.386Z,7.8
2019-02-15T13:13:41.798Z,7.8
2019-02-15T13:14:43.359Z,7.8
2019-02-15T13:15:45.526Z,7.9
2019-02-15T13:16:47.101Z,7.9
2019-02-15T13:17:48.556Z,7.3
2019-02-15T13:18:50.152Z,7.4
2019-02-15T13:19:51.721Z,7.5
2019-02-15T13:20:53.306Z,7.6
2019-02-15T13:21:54.730Z,7.7
2019-02-15T13:22:56.408Z,7.7
2019-02-15T13:23:57.976Z,7.8
2019-02-15T13:24:59.588Z,7.8
2019-02-15T13:26:10.470Z,7.8
2019-02-15T13:27:11.885Z,7.8
2019-02-15T13:28:14.305Z,7.8
2019-02-15T13:29:15.705Z,7.8
2019-02-15T13:30:16.980Z,7.8
2019-02-15T13:31:18.549Z,7.2
2019-02-15T13:32:20.124Z,7.2
2019-02-15T13:33:21.431Z,7.3
2019-02-15T13:34:22.839Z,7.3
2019-02-15T13:35:24.443Z,7.3
2019-02-15T13:36:25.844Z,7.4
2019-02-15T13:37:27.422Z,7.4
2019-02-15T13:38:28.840Z,7.4
2019-02-15T13:39:30.421Z,7.5
2019-02-15T13:40:31.513Z,7.5
2019-02-15T13:41:32.819Z,7.5
2019-02-15T13:42:34.399Z,7.6
2019-02-15T13:43:35.790Z,7.6
2019-02-15T13:44:37.195Z,7.7
2019-02-15T13:45:38.772Z,7.8
2019-02-15T13:46:40.342Z,7.8
2019-02-15T13:47:41.777Z,7.8
2019-02-15T13:48:43.338Z,7.9
2019-02-15T13:49:44.743Z,7.8
2019-02-15T13:50:46.285Z,7.8
2019-02-15T13:51:47.709Z,7.9
2019-02-15T13:52:49.442Z,7.9
2019-02-15T13:53:51.012Z,7.9
2019-02-15T13:54:52.433Z,7.9
2019-02-15T13:55:54.011Z,7.9
2019-02-15T13:56:55.584Z,7.9
2019-02-15T13:57:56.814Z,7.9
2019-02-15T13:58:58.249Z,7.9
2019-02-15T13:59:59.487Z,7.9
2019-02-15T14:01:01.045Z,7.9
2019-02-15T14:02:02.314Z,7.9
2019-02-15T14:03:03.907Z,7.9
2019-02-15T14:04:05.346Z,7.2
2019-02-15T14:05:06.771Z,7.4
2019-02-15T14:06:08.342Z,7.5
2019-02-15T14:07:09.943Z,7.6
2019-02-15T14:08:11.393Z,7.8
2019-02-15T14:09:13.080Z,7.8